Time;durP1;ratioP1;P1;durP2;ratioP2;P2;SDS_P1;SDS_P2;PMS_P1;PMS_P2;Temp;Humidity;BMP_temperature;BMP_pressure;BME280_temperature;BME280_humidity;BME280_pressure;Samples;Min_cycle;Max_cycle;Signal;HPM_P1;HPM_P2
2022/03/16 00:01:07;;;;;;;;;14.25;14.25;;;;;14.34;100.00;101740.22;5075222;28;45495;-73
2022/03/16 00:03:33;;;;;;;;;15.00;13.25;;;;;14.33;100.00;101738.44;5076436;27;45523;-74
2022/03/16 00:05:58;;;;;;;;;14.50;13.75;;;;;14.33;100.00;101736.75;5076462;28;46056;-73
2022/03/16 00:08:28;;;;;;;;;14.50;13.25;;;;;14.32;100.00;101734.06;5076030;28;45237;-74
2022/03/16 00:11:01;;;;;;;;;19.75;16.25;;;;;14.27;100.00;101722.56;5076945;27;45322;-76
2022/03/16 00:13:32;;;;;;;;;16.50;16.50;;;;;14.32;100.00;101740.16;5077411;28;45552;-75
2022/03/16 00:15:58;;;;;;;;;19.00;18.00;;;;;14.31;100.00;101735.78;5077731;27;45473;-74
2022/03/16 00:18:23;;;;;;;;;15.00;15.00;;;;;14.30;100.00;101734.00;5077087;27;45312;-73
2022/03/16 00:20:49;;;;;;;;;14.75;14.75;;;;;14.29;100.00;101737.41;5076748;27;45336;-74
2022/03/16 00:23:15;;;;;;;;;16.25;14.25;;;;;14.30;100.00;101746.16;5077211;27;45279;-73
2022/03/16 00:25:42;;;;;;;;;15.00;15.00;;;;;14.30;100.00;101743.53;5076513;27;45410;-74
2022/03/16 00:28:07;;;;;;;;;16.50;15.50;;;;;14.26;100.00;101733.78;5075666;28;45345;-73
2022/03/16 00:30:33;;;;;;;;;19.50;15.75;;;;;14.24;100.00;101725.94;5109404;27;45408;-74
2022/03/16 00:32:59;;;;;;;;;17.00;15.50;;;;;14.23;100.00;101725.00;5076636;27;45336;-74
2022/03/16 00:35:25;;;;;;;;;13.75;13.75;;;;;14.30;100.00;101740.94;5076441;27;46173;-73
2022/03/16 00:37:51;;;;;;;;;12.00;12.00;;;;;14.30;100.00;101735.72;5075868;28;45724;-73
2022/03/16 00:40:16;;;;;;;;;16.25;16.25;;;;;14.28;100.00;101733.03;5076841;28;45311;-73
2022/03/16 00:42:49;;;;;;;;;18.50;15.25;;;;;14.28;100.00;101732.16;5075768;27;45432;-73
2022/03/16 00:45:14;;;;;;;;;16.75;16.25;;;;;14.26;100.00;101739.88;5075883;28;46177;-74
2022/03/16 00:47:40;;;;;;;;;16.50;14.25;;;;;14.25;100.00;101732.91;5076688;27;45486;-75
2022/03/16 00:50:06;;;;;;;;;14.75;14.00;;;;;14.18;100.00;101723.03;5091915;27;45330;-75
2022/03/16 00:52:32;;;;;;;;;15.75;15.75;;;;;14.27;100.00;101725.16;5078276;27;45616;-75
2022/03/16 00:54:58;;;;;;;;;17.75;16.50;;;;;14.27;100.00;101725.16;5076298;27;45957;-75
2022/03/16 00:57:23;;;;;;;;;13.75;13.75;;;;;14.19;100.00;101710.09;5088463;27;45478;-74
2022/03/16 00:59:49;;;;;;;;;15.75;15.00;;;;;14.23;100.00;101713.72;5075906;27;45197;-75
2022/03/16 01:02:14;;;;;;;;;16.50;15.50;;;;;14.14;100.00;101697.69;5076234;28;45560;-75
2022/03/16 01:04:40;;;;;;;;;17.00;14.25;;;;;14.23;100.00;101709.38;5076030;27;45519;-73
2022/03/16 01:07:06;;;;;;;;;14.75;14.75;;;;;14.24;100.00;101705.09;5082292;27;45376;-73
2022/03/16 01:09:31;;;;;;;;;18.25;15.00;;;;;14.27;100.00;101709.53;5096657;27;45377;-74
2022/03/16 01:11:57;;;;;;;;;16.75;13.75;;;;;14.28;100.00;101711.31;5086853;27;45231;-74
2022/03/16 01:14:23;;;;;;;;;11.75;11.50;;;;;14.30;100.00;101699.25;5074560;27;46882;-74
2022/03/16 01:16:48;;;;;;;;;17.50;16.25;;;;;14.29;100.00;101692.25;5081539;27;45376;-73
2022/03/16 01:19:14;;;;;;;;;16.00;15.00;;;;;14.32;100.00;101694.97;5079769;27;45377;-73
2022/03/16 01:21:42;;;;;;;;;16.50;15.25;;;;;14.22;100.00;101678.94;5076614;28;45299;-74
2022/03/16 01:24:08;;;;;;;;;14.75;14.00;;;;;14.27;100.00;101684.38;5075976;28;46193;-73
2022/03/16 01:26:34;;;;;;;;;15.50;15.50;;;;;14.28;100.00;101678.34;5075643;27;45464;-73
2022/03/16 01:29:01;;;;;;;;;17.50;15.25;;;;;14.23;100.00;101683.34;5075718;27;45418;-74
2022/03/16 01:31:27;;;;;;;;;14.75;14.00;;;;;14.24;100.00;101673.84;5074869;28;45485;-74
2022/03/16 01:33:52;;;;;;;;;17.50;14.50;;;;;14.22;100.00;101678.94;5095538;27;45408;-73
2022/03/16 01:36:18;;;;;;;;;17.00;15.50;;;;;14.19;100.00;101667.50;5097728;27;45556;-74
2022/03/16 01:38:44;;;;;;;;;18.00;17.00;;;;;14.18;100.00;101668.34;5096034;27;45321;-73
2022/03/16 01:41:09;;;;;;;;;16.00;15.50;;;;;14.09;100.00;101661.03;5096309;27;45537;-74
2022/03/16 01:43:35;;;;;;;;;13.75;11.25;;;;;14.10;100.00;101662.78;5095978;27;45444;-74
2022/03/16 01:46:01;;;;;;;;;18.25;14.75;;;;;14.06;100.00;101663.50;5095773;27;45254;-73
2022/03/16 01:48:26;;;;;;;;;15.75;14.25;;;;;14.04;100.00;101670.34;5080129;27;45713;-74
2022/03/16 01:50:54;;;;;;;;;14.00;11.50;;;;;13.99;100.00;101664.03;5075687;27;45389;-74
2022/03/16 01:53:20;;;;;;;;;16.25;14.00;;;;;13.98;100.00;101664.88;5075337;28;45384;-73
2022/03/16 01:55:47;;;;;;;;;13.75;13.75;;;;;14.03;100.00;101676.38;5074827;27;45477;-74
2022/03/16 01:58:13;;;;;;;;;15.00;15.00;;;;;14.02;100.00;101669.38;5075495;27;45290;-73
2022/03/16 02:00:40;;;;;;;;;17.75;16.00;;;;;14.04;100.00;101672.94;5076076;27;45466;-74
2022/03/16 02:03:09;;;;;;;;;16.75;13.50;;;;;14.05;100.00;101673.00;5082914;27;46306;-74
2022/03/16 02:05:36;;;;;;;;;16.00;15.25;;;;;14.00;100.00;101665.81;5085601;27;45503;-74
2022/03/16 02:08:04;;;;;;;;;16.00;14.25;;;;;14.00;100.00;101669.31;5096634;27;45302;-74
2022/03/16 02:10:31;;;;;;;;;15.25;15.00;;;;;14.02;100.00;101671.97;5094527;27;45556;-74
2022/03/16 02:12:57;;;;;;;;;14.75;14.75;;;;;13.98;100.00;101664.88;5092272;27;46678;-74
2022/03/16 02:15:23;;;;;;;;;14.75;13.00;;;;;14.02;100.00;101675.50;5092348;27;45377;-74
2022/03/16 02:17:50;;;;;;;;;15.25;15.00;;;;;13.99;100.00;101666.63;5085577;27;45626;-74
2022/03/16 02:20:17;;;;;;;;;16.00;15.50;;;;;13.97;100.00;101666.56;5092552;27;45208;-74
2022/03/16 02:22:57;;;;;;;;;13.00;13.00;;;;;13.98;100.00;101672.69;5093501;27;45229;-73
2022/03/16 02:25:25;;;;;;;;;14.25;14.25;;;;;13.95;100.00;101667.31;5078504;27;45443;-73
2022/03/16 02:27:54;;;;;;;;;15.00;13.75;;;;;13.97;100.00;101670.91;5078308;27;45462;-76
2022/03/16 02:30:21;;;;;;;;;11.25;11.25;;;;;13.98;100.00;101670.94;5078761;27;45487;-75
2022/03/16 02:32:47;;;;;;;;;15.75;15.00;;;;;13.97;100.00;101658.75;5076818;27;46731;-75
2022/03/16 02:35:12;;;;;;;;;17.00;14.25;;;;;13.95;100.00;101654.31;5077876;28;45758;-75
2022/03/16 02:37:39;;;;;;;;;17.50;14.25;;;;;13.91;100.00;101648.97;5078624;27;45426;-74
2022/03/16 02:40:10;;;;;;;;;17.50;13.00;;;;;13.89;100.00;101649.72;5078379;28;45214;-75
2022/03/16 02:42:37;;;;;;;;;20.50;18.75;;;;;13.85;100.00;101643.50;5077634;28;46368;-73
2022/03/16 02:45:04;;;;;;;;;13.00;12.25;;;;;13.85;100.00;101643.50;5078008;27;45901;-73
2022/03/16 02:47:30;;;;;;;;;20.00;16.00;;;;;13.76;100.00;101636.16;5078189;27;45246;-75
2022/03/16 02:49:56;;;;;;;;;14.00;13.75;;;;;13.82;100.00;101642.47;5078218;27;45322;-75
2022/03/16 02:52:22;;;;;;;;;13.75;13.00;;;;;13.76;100.00;101633.56;5094012;27;45581;-75
2022/03/16 02:54:49;;;;;;;;;15.75;15.00;;;;;13.72;100.00;101635.94;5101452;27;45870;-76
2022/03/16 02:57:16;;;;;;;;;14.75;14.50;;;;;13.71;100.00;101637.69;5079442;27;45419;-75
2022/03/16 02:59:43;;;;;;;;;21.25;19.00;;;;;13.75;100.00;101643.91;5077371;28;45843;-75
2022/03/16 03:02:09;;;;;;;;;15.00;15.00;;;;;13.71;100.00;101637.69;5078322;27;46354;-73
2022/03/16 03:04:34;;;;;;;;;16.00;15.50;;;;;13.73;100.00;101641.22;5077890;27;45252;-73
2022/03/16 03:07:00;;;;;;;;;18.00;16.50;;;;;13.72;100.00;101646.34;5076261;27;45414;-73
2022/03/16 03:09:26;;;;;;;;;17.25;17.25;;;;;13.65;100.00;101633.91;5078294;27;45242;-73
2022/03/16 03:11:52;;;;;;;;;20.75;17.75;;;;;13.72;100.00;101646.34;5077528;27;46123;-73
2022/03/16 03:14:17;;;;;;;;;17.50;15.00;;;;;13.74;100.00;101652.53;5077524;27;45264;-74
2022/03/16 03:16:43;;;;;;;;;17.00;16.75;;;;;13.71;100.00;101650.69;5075615;28;45389;-75
2022/03/16 03:19:08;;;;;;;;;18.75;15.50;;;;;13.74;100.00;101644.72;5076499;28;45358;-75
2022/03/16 03:21:34;;;;;;;;;15.75;15.25;;;;;13.73;100.00;101651.63;5077621;28;45912;-73
2022/03/16 03:24:00;;;;;;;;;19.25;18.50;;;;;13.62;100.00;101634.63;5076830;28;45350;-74
2022/03/16 03:26:25;;;;;;;;;17.75;17.75;;;;;13.68;100.00;101647.94;5081304;27;45439;-73
2022/03/16 03:28:51;;;;;;;;;17.00;16.00;;;;;13.70;100.00;101645.38;5077615;27;45489;-73
2022/03/16 03:31:17;;;;;;;;;17.50;16.50;;;;;13.71;100.00;101641.97;5077233;28;45699;-74
2022/03/16 03:33:43;;;;;;;;;18.00;17.75;;;;;13.67;100.00;101640.94;5080651;28;45293;-74
2022/03/16 03:36:08;;;;;;;;;15.25;14.50;;;;;13.66;100.00;101640.88;5080539;27;45247;-73
2022/03/16 03:38:34;;;;;;;;;19.25;17.50;;;;;13.61;100.00;101631.16;5077721;27;45448;-74
2022/03/16 03:41:00;;;;;;;;;22.00;18.25;;;;;13.66;100.00;101636.56;5077113;27;45329;-74
2022/03/16 03:43:25;;;;;;;;;18.75;18.75;;;;;13.68;100.00;101654.84;5077329;27;45355;-73
2022/03/16 03:45:51;;;;;;;;;20.25;17.50;;;;;13.65;100.00;101645.19;5076897;27;45338;-74
2022/03/16 03:48:16;;;;;;;;;19.75;18.00;;;;;13.69;100.00;101641.91;5078122;27;45397;-74
2022/03/16 03:50:42;;;;;;;;;18.25;17.75;;;;;13.70;100.00;101637.59;5076936;27;45952;-72
2022/03/16 03:53:08;;;;;;;;;20.25;16.25;;;;;13.71;100.00;101650.69;5084754;27;45421;-73
2022/03/16 03:55:33;;;;;;;;;22.75;20.25;;;;;13.73;100.00;101645.53;5080693;27;45565;-73
2022/03/16 03:57:59;;;;;;;;;21.50;20.00;;;;;13.72;100.00;101643.75;5077057;28;45498;-73
2022/03/16 04:00:24;;;;;;;;;23.00;22.00;;;;;13.70;100.00;101643.69;5077053;28;45388;-73
2022/03/16 04:02:51;;;;;;;;;18.75;17.50;;;;;13.70;100.00;101648.00;5075394;28;45495;-74
2022/03/16 04:05:20;;;;;;;;;20.50;20.50;;;;;13.70;100.00;101642.78;5076545;27;45488;-73
2022/03/16 04:07:48;;;;;;;;;17.75;15.50;;;;;13.68;100.00;101634.94;5077203;28;45568;-73
2022/03/16 04:10:14;;;;;;;;;19.00;18.00;;;;;13.64;100.00;101617.38;5076688;28;45357;-73
2022/03/16 04:12:40;;;;;;;;;20.75;19.75;;;;;13.67;100.00;101630.53;5076318;28;45330;-73
2022/03/16 04:15:06;;;;;;;;;22.50;20.00;;;;;13.65;100.00;101628.69;5077042;28;45332;-73
2022/03/16 04:17:32;;;;;;;;;24.25;20.75;;;;;13.67;100.00;101624.44;5078216;27;45526;-73
2022/03/16 04:19:57;;;;;;;;;19.00;18.25;;;;;13.64;100.00;101617.38;5076566;27;45413;-74
2022/03/16 04:22:26;;;;;;;;;20.00;18.00;;;;;13.65;100.00;101616.56;5076486;27;45458;-75
2022/03/16 04:24:52;;;;;;;;;24.25;19.75;;;;;13.61;100.00;101607.72;5074698;27;45507;-74
2022/03/16 04:27:18;;;;;;;;;22.00;21.25;;;;;13.60;100.00;101599.88;5075628;28;45439;-74
2022/03/16 04:29:43;;;;;;;;;24.50;20.25;;;;;13.59;100.00;101608.50;5074717;28;45426;-74
2022/03/16 04:32:09;;;;;;;;;20.50;18.50;;;;;13.48;100.00;101591.50;5076879;28;45355;-74
2022/03/16 04:34:34;;;;;;;;;21.00;18.75;;;;;13.56;100.00;101609.22;5076348;28;45531;-74
2022/03/16 04:37:00;;;;;;;;;21.00;20.50;;;;;13.51;100.00;101597.72;5076660;27;45318;-74
2022/03/16 04:39:26;;;;;;;;;22.00;19.75;;;;;13.55;100.00;101594.44;5076299;27;46003;-74
2022/03/16 04:41:51;;;;;;;;;23.25;18.25;;;;;13.55;100.00;101598.75;5076513;27;45401;-75
2022/03/16 04:44:17;;;;;;;;;19.75;19.00;;;;;13.53;100.00;101593.50;5075824;27;45545;-75
2022/03/16 04:46:42;;;;;;;;;19.50;18.25;;;;;13.49;100.00;101588.09;5076409;28;45501;-74
2022/03/16 04:49:08;;;;;;;;;25.00;20.75;;;;;13.46;100.00;101587.13;5078075;28;45441;-74
2022/03/16 04:51:33;;;;;;;;;19.50;17.00;;;;;13.48;100.00;101594.97;5078283;28;45354;-75
2022/03/16 04:53:59;;;;;;;;;25.00;23.75;;;;;13.45;100.00;101594.84;5078876;28;45303;-75
2022/03/16 04:56:25;;;;;;;;;21.25;18.25;;;;;13.51;100.00;101602.03;5078883;27;45583;-75
2022/03/16 04:58:50;;;;;;;;;20.50;17.75;;;;;13.52;100.00;101594.31;5082420;27;45985;-76
2022/03/16 05:01:16;;;;;;;;;23.75;20.50;;;;;13.49;100.00;101599.38;5096669;27;45358;-73
2022/03/16 05:03:42;;;;;;;;;25.00;21.50;;;;;13.47;100.00;101593.19;5092895;27;46044;-75
2022/03/16 05:06:07;;;;;;;;;24.50;21.75;;;;;13.48;100.00;101594.97;5077233;27;45229;-73
2022/03/16 05:08:35;;;;;;;;;25.25;21.25;;;;;13.53;100.00;101606.50;5095759;27;46274;-73
2022/03/16 05:11:02;;;;;;;;;22.50;17.75;;;;;13.55;100.00;101598.75;5080753;27;45314;-73
2022/03/16 05:13:28;;;;;;;;;22.25;18.50;;;;;13.59;100.00;101593.75;5079400;27;45321;-74
2022/03/16 05:15:54;;;;;;;;;27.25;19.00;;;;;13.60;100.00;101592.94;5075882;27;45316;-73
2022/03/16 05:18:20;;;;;;;;;23.50;21.00;;;;;13.58;100.00;101581.56;5075740;28;45339;-73
2022/03/16 05:20:45;;;;;;;;;25.75;21.00;;;;;13.59;100.00;101585.94;5075009;28;45310;-76
2022/03/16 05:23:11;;;;;;;;;21.75;18.75;;;;;13.52;100.00;101580.41;5076196;28;45359;-76
2022/03/16 05:25:37;;;;;;;;;24.75;22.00;;;;;13.59;100.00;101598.97;5076559;27;45280;-76
2022/03/16 05:28:03;;;;;;;;;20.75;18.75;;;;;13.58;100.00;101593.69;5074092;27;48131;-74
2022/03/16 05:30:29;;;;;;;;;18.25;18.25;;;;;13.58;100.00;101596.31;5074117;27;45484;-74
2022/03/16 05:33:00;;;;;;;;;29.00;24.75;;;;;13.60;100.00;101611.16;5076597;27;45463;-74
2022/03/16 05:35:27;;;;;;;;;25.75;24.00;;;;;13.62;100.00;101617.31;5078055;27;45250;-73
2022/03/16 05:37:53;;;;;;;;;24.25;19.00;;;;;13.64;100.00;101613.91;5075756;27;46670;-74
2022/03/16 05:40:19;;;;;;;;;17.50;16.25;;;;;13.63;100.00;101620.78;5075460;27;45326;-73
2022/03/16 05:42:44;;;;;;;;;25.25;21.75;;;;;13.53;100.00;101603.91;5077909;28;45342;-74
2022/03/16 05:45:11;;;;;;;;;21.00;19.25;;;;;13.65;100.00;101618.28;5079773;28;45380;-74
2022/03/16 05:47:37;;;;;;;;;25.25;20.25;;;;;13.64;100.00;101622.59;5079422;28;46165;-74
2022/03/16 05:50:03;;;;;;;;;25.00;24.00;;;;;13.68;100.00;101615.81;5078707;28;45410;-74
2022/03/16 05:52:31;;;;;;;;;25.50;22.00;;;;;13.67;100.00;101614.00;5077748;28;45285;-73
2022/03/16 05:54:58;;;;;;;;;21.25;19.50;;;;;13.68;100.00;101616.72;5079082;27;45489;-73
2022/03/16 05:57:25;;;;;;;;;22.75;20.25;;;;;13.70;100.00;101604.66;5078818;28;45983;-73
2022/03/16 05:59:51;;;;;;;;;20.50;19.00;;;;;13.69;100.00;101610.69;5078368;27;45375;-73
2022/03/16 06:02:17;;;;;;;;;22.25;19.00;;;;;13.69;100.00;101608.09;5078825;28;46207;-73
2022/03/16 06:04:45;;;;;;;;;21.25;20.00;;;;;13.66;100.00;101609.66;5079665;27;45486;-73
2022/03/16 06:07:11;;;;;;;;;28.50;27.00;;;;;13.71;100.00;101608.13;5078899;27;45396;-74
2022/03/16 06:09:37;;;;;;;;;25.50;24.75;;;;;13.76;100.00;101620.53;5079251;27;45964;-73
2022/03/16 06:12:04;;;;;;;;;25.75;22.25;;;;;13.70;100.00;101603.75;5079103;27;45414;-73
2022/03/16 06:14:31;;;;;;;;;28.75;24.50;;;;;13.76;100.00;101623.13;5080899;28;45321;-74
2022/03/16 06:16:57;;;;;;;;;22.75;21.50;;;;;13.75;100.00;101621.34;5079707;28;45389;-75
2022/03/16 06:19:23;;;;;;;;;31.25;27.25;;;;;13.72;100.00;101615.13;5077656;28;45286;-74
2022/03/16 06:21:49;;;;;;;;;24.75;22.00;;;;;13.69;100.00;101612.38;5077827;27;45374;-72
2022/03/16 06:24:15;;;;;;;;;32.75;25.25;;;;;13.67;100.00;101595.81;5078242;27;45583;-73
2022/03/16 06:26:41;;;;;;;;;27.50;24.00;;;;;13.73;100.00;101601.28;5076598;28;46113;-75
2022/03/16 06:29:07;;;;;;;;;25.50;23.25;;;;;13.73;100.00;101612.59;5077819;27;45397;-72
2022/03/16 06:31:34;;;;;;;;;22.75;22.00;;;;;13.68;100.00;101614.09;5077840;27;45482;-74
2022/03/16 06:33:59;;;;;;;;;26.50;21.50;;;;;13.73;100.00;101624.72;5078499;27;45424;-74
2022/03/16 06:36:26;;;;;;;;;31.50;25.00;;;;;13.72;100.00;101639.44;5078265;27;46481;-74
2022/03/16 06:38:52;;;;;;;;;23.50;20.50;;;;;13.73;100.00;101637.72;5077943;27;45445;-75
2022/03/16 06:41:18;;;;;;;;;23.25;23.25;;;;;13.74;100.00;101639.50;5078082;27;45456;-75
2022/03/16 06:43:44;;;;;;;;;26.50;24.25;;;;;13.73;100.00;101636.00;5078499;28;45227;-75
2022/03/16 06:46:10;;;;;;;;;26.00;22.00;;;;;13.78;100.00;101646.63;5078109;28;45333;-74
2022/03/16 06:48:35;;;;;;;;;27.75;23.75;;;;;13.75;100.00;101639.56;5082622;27;45355;-75
2022/03/16 06:51:01;;;;;;;;;28.75;25.00;;;;;13.78;100.00;101642.31;5088989;27;45280;-76
2022/03/16 06:53:28;;;;;;;;;28.50;25.75;;;;;13.79;100.00;101648.41;5083179;27;45227;-76
2022/03/16 06:55:54;;;;;;;;;30.25;28.50;;;;;13.80;100.00;101655.41;5079295;28;46853;-72
2022/03/16 06:58:19;;;;;;;;;25.50;23.75;;;;;13.76;100.00;101645.69;5078229;28;45299;-74
2022/03/16 07:00:46;;;;;;;;;34.25;29.25;;;;;13.75;100.00;101652.59;5077844;27;45374;-79
2022/03/16 07:03:11;;;;;;;;;31.25;24.75;;;;;13.72;100.00;101657.66;5078751;27;45452;-78
2022/03/16 07:05:39;;;;;;;;;24.75;21.75;;;;;13.68;100.00;101650.53;5078174;28;46317;-82
2022/03/16 07:08:07;;;;;;;;;27.75;25.50;;;;;13.73;100.00;101653.34;5076748;28;45465;-76
2022/03/16 07:10:34;;;;;;;;;30.25;26.00;;;;;13.73;100.00;101651.63;5075386;28;45271;-72
2022/03/16 07:13:00;;;;;;;;;30.00;25.25;;;;;13.74;100.00;101653.41;5077635;27;45276;-74
2022/03/16 07:15:27;;;;;;;;;27.00;24.75;;;;;13.74;100.00;101650.81;5076957;27;45510;-75
2022/03/16 07:17:53;;;;;;;;;27.75;24.00;;;;;13.65;100.00;101631.31;5076161;28;45438;-75
2022/03/16 07:20:19;;;;;;;;;30.25;25.00;;;;;13.77;100.00;101648.34;5076725;27;45500;-75
2022/03/16 07:22:44;;;;;;;;;29.00;25.25;;;;;13.77;100.00;101644.84;5076791;27;45425;-75
2022/03/16 07:25:10;;;;;;;;;31.50;28.00;;;;;13.84;100.00;101640.81;5077783;27;46089;-79
2022/03/16 07:27:40;;;;;;;;;28.00;25.50;;;;;13.86;100.00;101649.56;5075476;28;45504;-78
2022/03/16 07:30:09;;;;;;;;;32.25;28.75;;;;;13.89;100.00;101644.50;5078092;27;45490;-82
2022/03/16 07:32:41;;;;;;;;;27.75;24.75;;;;;13.88;100.00;101645.34;5079740;28;45682;-81
2022/03/16 07:35:11;;;;;;;;;31.75;27.00;;;;;13.92;100.00;101644.66;5080711;28;46069;-77
2022/03/16 07:37:38;;;;;;;;;30.25;25.25;;;;;13.90;100.00;101646.31;5078324;28;45443;-80
2022/03/16 07:40:04;;;;;;;;;30.25;26.00;;;;;13.93;100.00;101654.22;5077118;27;45278;-77
2022/03/16 07:42:30;;;;;;;;;27.25;23.25;;;;;13.85;100.00;101640.88;5077711;28;45366;-79
2022/03/16 07:44:57;;;;;;;;;27.50;23.50;;;;;13.93;100.00;101655.13;5079759;27;46398;-76
2022/03/16 07:47:25;;;;;;;;;30.75;25.50;;;;;13.90;100.00;101638.50;5086040;27;45494;-74
2022/03/16 07:49:51;;;;;;;;;31.50;28.25;;;;;13.84;100.00;101633.91;5077022;28;45329;-75
2022/03/16 07:52:16;;;;;;;;;35.25;26.75;;;;;13.78;100.00;101631.91;5078315;27;45508;-76
2022/03/16 07:54:42;;;;;;;;;25.25;24.25;;;;;13.93;100.00;101654.22;5080924;27;45588;-76
2022/03/16 07:57:08;;;;;;;;;29.25;25.25;;;;;13.90;100.00;101647.19;5076746;27;45325;-75
2022/03/16 07:59:34;;;;;;;;;22.50;21.75;;;;;13.91;100.00;101640.28;5076899;27;45303;-74
2022/03/16 08:01:59;;;;;;;;;26.50;23.75;;;;;13.87;100.00;101634.03;5076795;27;45424;-75
2022/03/16 08:04:25;;;;;;;;;30.25;26.25;;;;;13.96;100.00;101656.97;5076329;27;45371;-74
2022/03/16 08:06:51;;;;;;;;;32.75;26.25;;;;;13.97;100.00;101650.94;5076556;27;45374;-75
2022/03/16 08:09:16;;;;;;;;;26.00;26.00;;;;;13.94;100.00;101643.00;5069066;28;45442;-75
2022/03/16 08:11:42;;;;;;;;;31.00;27.25;;;;;13.96;100.00;101643.97;5072893;28;45277;-75
2022/03/16 08:14:08;;;;;;;;;29.25;25.50;;;;;13.97;100.00;101650.94;5077049;27;45468;-76
2022/03/16 08:16:35;;;;;;;;;26.75;23.50;;;;;14.00;100.00;101648.50;5077255;27;45375;-75
2022/03/16 08:19:03;;;;;;;;;27.00;26.00;;;;;14.03;100.00;101642.50;5077088;28;45437;-76
2022/03/16 08:21:29;;;;;;;;;30.50;27.00;;;;;14.02;100.00;101635.53;5077315;27;45521;-76
2022/03/16 08:23:55;;;;;;;;;30.25;27.50;;;;;14.05;100.00;101638.28;5076145;27;46195;-75
2022/03/16 08:26:21;;;;;;;;;32.00;28.25;;;;;14.02;100.00;101630.31;5088411;27;45574;-80
2022/03/16 08:28:47;;;;;;;;;28.50;25.75;;;;;14.04;100.00;101628.69;5087357;27;45503;-78
2022/03/16 08:31:14;;;;;;;;;24.25;24.25;;;;;14.11;100.00;101648.06;5076629;27;45275;-77
2022/03/16 08:33:41;;;;;;;;;33.00;27.25;;;;;14.10;100.00;101641.94;5075955;27;45276;-75
2022/03/16 08:36:08;;;;;;;;;32.75;29.25;;;;;14.13;100.00;101641.22;5082697;27;45348;-78
2022/03/16 08:38:36;;;;;;;;;30.50;28.25;;;;;14.06;100.00;101625.31;5092302;27;45504;-75
2022/03/16 08:41:03;;;;;;;;;30.75;29.50;;;;;14.04;100.00;101628.69;5077454;27;45548;-76
2022/03/16 08:43:29;;;;;;;;;33.75;31.75;;;;;14.16;100.00;101649.16;5076448;27;46499;-76
2022/03/16 08:45:55;;;;;;;;;33.25;29.25;;;;;14.23;100.00;101648.59;5076778;27;45338;-76
2022/03/16 08:48:21;;;;;;;;;27.50;26.50;;;;;14.25;100.00;101652.19;5087912;27;45299;-75
2022/03/16 08:50:47;;;;;;;;;29.50;27.50;;;;;14.16;100.00;101637.03;5088380;27;45579;-75
2022/03/16 08:53:12;;;;;;;;;29.75;26.75;;;;;14.18;100.00;101655.31;5080028;28;45352;-75
2022/03/16 08:55:38;;;;;;;;;31.50;29.75;;;;;14.00;100.00;101640.69;5091396;27;45460;-73
2022/03/16 08:58:04;;;;;;;;;30.50;28.25;;;;;14.13;100.00;101667.25;5097069;27;45400;-73
2022/03/16 09:00:29;;;;;;;;;32.00;28.00;;;;;14.07;100.00;101667.88;5096662;27;45388;-73
2022/03/16 09:02:56;;;;;;;;;34.25;27.75;;;;;14.06;100.00;101684.31;5095863;27;45992;-72
2022/03/16 09:05:22;;;;;;;;;31.50;26.25;;;;;14.08;100.00;101685.28;5096365;27;45445;-73
2022/03/16 09:07:48;;;;;;;;;26.50;23.25;;;;;14.08;100.00;101680.97;5096278;27;45401;-74
2022/03/16 09:10:14;;;;;;;;;27.75;27.25;;;;;14.09;100.00;101679.25;5096650;27;45442;-72
2022/03/16 09:12:40;;;;;;;;;29.75;26.25;;;;;14.17;100.00;101675.28;5096609;27;45242;-72
2022/03/16 09:15:06;;;;;;;;;29.50;25.25;;;;;14.20;100.00;101672.78;5096208;27;45370;-72
2022/03/16 09:17:33;;;;;;;;;29.75;28.25;;;;;14.27;100.00;101675.66;5100192;27;45356;-71
2022/03/16 09:19:59;;;;;;;;;31.25;28.00;;;;;14.32;100.00;101667.22;5099682;27;45480;-73
2022/03/16 09:22:24;;;;;;;;;26.75;26.75;;;;;14.34;100.00;101659.47;5099716;27;45902;-72
2022/03/16 09:24:50;;;;;;;;;34.75;29.50;;;;;14.42;100.00;101671.09;5099229;27;45326;-73
2022/03/16 09:27:16;;;;;;;;;33.50;30.25;;;;;14.45;100.00;101676.47;5100007;27;45306;-73
2022/03/16 09:29:46;;;;;;;;;33.50;29.75;;;;;14.49;100.00;101677.47;5099761;27;45432;-72
2022/03/16 09:32:13;;;;;;;;;34.75;30.00;;;;;14.57;100.00;101680.41;5100332;27;45344;-72
2022/03/16 09:34:40;;;;;;;;;26.25;25.00;;;;;14.58;100.00;101675.25;5101092;27;45359;-72
2022/03/16 09:37:08;;;;;;;;;33.50;28.50;;;;;14.63;100.00;101684.16;5099868;27;45452;-72
2022/03/16 09:39:35;;;;;;;;;31.75;30.25;;;;;14.67;100.00;101673.09;5100001;27;45598;-73
2022/03/16 09:42:02;;;;;;;;;31.50;29.50;;;;;14.68;100.00;101668.75;5099074;27;45420;-72
2022/03/16 09:44:30;;;;;;;;;34.00;30.00;;;;;14.53;100.00;101635.97;5099392;27;45860;-75
2022/03/16 09:46:57;;;;;;;;;37.75;30.00;;;;;14.74;100.00;101666.38;5098804;27;45370;-72
2022/03/16 09:49:26;;;;;;;;;21.50;18.75;;;;;14.76;100.00;101664.75;5099679;27;45385;-72
2022/03/16 09:51:53;;;;;;;;;29.25;27.00;;;;;14.80;100.00;101673.56;5098924;27;46158;-71
2022/03/16 09:54:20;;;;;;;;;28.00;28.00;;;;;14.77;100.00;101660.44;5099308;27;45376;-71
2022/03/16 09:56:47;;;;;;;;;32.75;28.50;;;;;14.85;100.00;101665.13;5099112;27;45435;-71
2022/03/16 09:59:14;;;;;;;;;38.25;31.25;;;;;14.85;100.00;101656.41;5099421;27;45561;-72
2022/03/16 10:01:42;;;;;;;;;36.00;31.75;;;;;14.92;100.00;101654.97;5099508;27;45204;-72
2022/03/16 10:04:07;;;;;;;;;35.25;29.25;;;;;14.92;100.00;101644.53;5099581;27;45293;-73
2022/03/16 10:06:40;;;;;;;;;35.00;31.00;;;;;14.99;100.00;101649.16;5099483;27;45184;-73
2022/03/16 10:15:06;;;;;;;;;34.25;30.25;;;;;15.11;100.00;101661.81;5101499;27;45329;-73
2022/03/16 10:17:44;;;;;;;;;30.25;25.75;;;;;15.10;100.00;101652.19;5099026;27;45336;-73
2022/03/16 10:20:11;;;;;;;;;41.00;32.50;;;;;15.16;100.00;101655.03;5099456;27;45395;-73
2022/03/16 10:22:40;;;;;;;;;35.50;30.50;;;;;15.17;100.00;101649.00;5099140;27;45472;-74
2022/03/16 10:25:07;;;;;;;;;30.75;30.00;;;;;15.20;100.00;101645.63;5098457;27;45772;-74
2022/03/16 10:27:37;;;;;;;;;36.25;31.50;;;;;15.20;100.00;101646.53;5098474;27;45354;-76
2022/03/16 10:30:05;;;;;;;;;32.75;30.50;;;;;15.17;100.00;101646.38;5098846;27;45282;-76
2022/03/16 10:32:32;;;;;;;;;42.00;35.00;;;;;15.22;100.00;101654.41;5097312;27;47447;-75
2022/03/16 10:35:09;;;;;;;;;40.25;33.00;;;;;15.20;100.00;101651.72;5098474;27;45771;-75
2022/03/16 10:37:37;;;;;;;;;36.75;32.75;;;;;15.24;100.00;101642.31;5098970;27;45309;-77
2022/03/16 10:40:17;;;;;;;;;37.75;33.00;;;;;15.30;100.00;101639.91;5098747;27;45484;-75
2022/03/16 10:48:22;;;;;;;;;35.25;32.25;;;;;15.47;100.00;101640.56;5098811;27;45427;-72
2022/03/16 10:50:50;;;;;;;;;45.25;34.50;;;;;15.50;100.00;101642.41;5098030;27;45218;-71
2022/03/16 10:53:18;;;;;;;;;39.75;34.50;;;;;15.53;100.00;101635.59;5099428;27;46337;-72
2022/03/16 10:55:45;;;;;;;;;37.50;32.50;;;;;15.59;100.00;101627.13;5098046;27;45491;-72
2022/03/16 10:58:12;;;;;;;;;41.25;33.00;;;;;15.62;100.00;101620.28;5098695;27;45328;-73
2022/03/16 11:00:40;;;;;;;;;44.00;33.25;;;;;15.69;100.00;101610.97;5098732;27;45234;-72
2022/03/16 11:03:09;;;;;;;;;39.00;32.75;;;;;15.72;100.00;101611.03;5097590;27;46136;-73
2022/03/16 11:05:37;;;;;;;;;36.75;30.50;;;;;15.79;100.00;101606.94;5097961;27;45320;-72
2022/03/16 11:08:06;;;;;;;;;34.00;31.00;;;;;15.82;100.00;101603.56;5097844;27;45228;-72
2022/03/16 11:10:35;;;;;;;;;41.50;33.75;;;;;15.86;100.00;101603.78;5098147;27;45353;-71